Time;durP1;ratioP1;P1;durP2;ratioP2;P2;SDS_P1;SDS_P2;PMS_P1;PMS_P2;Temp;Humidity;BMP_temperature;BMP_pressure;BME280_temperature;BME280_humidity;BME280_pressure;Samples;Min_cycle;Max_cycle;Signal;HPM_P1;HPM_P2
2022/02/11 00:00:20;;;;;;;10.45;7.30;;;;;;;2.48;96.42;101653.56;4965087;29;20051;-86
2022/02/11 00:08:23;;;;;;;11.60;7.20;;;;;;;2.48;96.25;101629.47;4930076;29;20043;-85
2022/02/11 00:10:51;;;;;;;;;;;;;;;2.62;96.29;101639.94;4965004;29;20142;-85
2022/02/11 00:13:18;;;;;;;15.77;6.93;;;;;;;2.46;96.42;101620.97;4963843;28;19922;-85
2022/02/11 00:15:52;;;;;;;10.38;7.90;;;;;;;2.54;96.52;101636.91;4962562;29;20047;-86
2022/02/11 00:18:21;;;;;;;11.75;6.90;;;;;;;2.37;96.34;101614.53;4960149;29;20106;-84
2022/02/11 00:20:52;;;;;;;12.30;7.03;;;;;;;2.52;96.39;101643.91;4961348;29;20047;-85
2022/02/11 00:23:24;;;;;;;14.75;7.65;;;;;;;2.45;96.29;101621.88;4961846;28;20051;-85
2022/02/11 01:04:09;;;;;;;14.57;8.68;;;;;;;2.25;96.31;101662.50;4958377;28;20061;-85
2022/02/11 01:06:36;;;;;;;16.05;9.20;;;;;;;2.18;96.31;101653.38;4959727;28;20165;-86
2022/02/11 01:09:04;;;;;;;16.65;8.80;;;;;;;2.19;96.60;101659.38;4960068;28;20514;-85
2022/02/11 01:11:35;;;;;;;15.27;9.38;;;;;;;2.16;96.96;101670.69;4960773;28;20532;-86
2022/02/11 01:14:02;;;;;;;16.15;9.40;;;;;;;2.13;96.95;101675.19;4959819;28;20062;-87
2022/02/11 01:16:38;;;;;;;15.98;9.43;;;;;;;2.11;97.06;101667.50;4958031;28;20182;-87
2022/02/11 01:19:13;;;;;;;18.08;9.52;;;;;;;2.07;97.22;101666.00;4958812;28;20462;-87
2022/02/11 01:21:47;;;;;;;16.85;9.00;;;;;;;2.06;97.16;101674.66;4957689;28;20047;-87
2022/02/11 01:24:30;;;;;;;17.13;9.55;;;;;;;2.06;97.33;101674.66;4958519;29;20058;-87
2022/02/11 01:27:16;;;;;;;16.05;11.30;;;;;;;2.05;97.38;101667.81;4961276;28;20421;-85
2022/02/11 01:30:06;;;;;;;14.82;9.70;;;;;;;2.07;97.59;101670.31;4970168;29;20043;-85
2022/02/11 01:32:47;;;;;;;15.00;10.35;;;;;;;1.95;97.44;101666.59;4976643;29;20039;-85
2022/02/11 01:35:21;;;;;;;20.42;10.55;;;;;;;1.94;97.39;101670.09;4972154;28;20287;-85
2022/02/11 01:37:56;;;;;;;17.42;10.60;;;;;;;1.97;97.95;101672.53;4962563;29;20050;-85
2022/02/11 01:51:41;;;;;;;19.27;11.38;;;;;;;1.78;98.34;101656.28;4943722;29;20107;-85
2022/02/11 01:54:46;;;;;;;21.05;13.23;;;;;;;1.76;97.95;101658.09;4943409;29;20499;-85
2022/02/11 02:08:52;;;;;;;21.55;12.98;;;;;;;1.55;98.87;101653.06;4921738;29;20056;-86
2022/02/11 02:26:03;;;;;;;28.08;14.77;;;;;;;1.53;98.51;101631.66;4500083;23;20065;-87
2022/02/11 02:35:00;;;;;;;;;;;;;;;1.57;98.77;101640.91;4976675;28;20055;-86
2022/02/11 02:37:40;;;;;;;25.15;14.32;;;;;;;1.56;98.81;101644.41;4999774;23;19962;-81
2022/02/11 02:57:09;;;;;;;32.15;17.90;;;;;;;1.58;99.01;101657.22;4920897;29;20080;-84
2022/02/11 02:59:59;;;;;;;33.83;17.73;;;;;;;1.53;98.47;101643.72;4954157;28;20070;-84
2022/02/11 03:16:57;;;;;;;38.10;18.25;;;;;;;1.51;99.03;101667.00;4979001;28;20121;-84
2022/02/11 03:50:55;;;;;;;26.77;12.65;;;;;;;2.02;95.05;101665.38;4982048;28;20473;-83
2022/02/11 04:21:17;;;;;;;27.15;11.88;;;;;;;2.44;94.03;101702.88;4984229;28;20487;-84
2022/02/11 04:56:47;;;;;;;25.85;12.27;;;;;;;2.77;93.15;101742.53;4997480;28;20082;-84
2022/02/11 05:01:58;;;;;;;23.55;12.20;;;;;;;2.80;93.35;101744.13;4997998;28;20064;-83
2022/02/11 05:04:25;;;;;;;32.55;12.88;;;;;;;2.83;93.16;101755.13;4996127;28;20051;-80
2022/02/11 05:06:51;;;;;;;25.48;12.45;;;;;;;2.83;93.44;101754.28;4994502;28;20504;-83
2022/02/11 05:09:18;;;;;;;30.60;11.73;;;;;;;2.86;93.22;101754.09;4980154;28;20054;-83
2022/02/11 05:11:46;;;;;;;23.90;11.32;;;;;;;2.81;93.31;101762.13;4979446;28;20058;-83
2022/02/11 05:14:14;;;;;;;27.45;11.43;;;;;;;2.82;93.50;101763.81;4980515;28;20362;-83
2022/02/11 05:16:40;;;;;;;26.13;13.02;;;;;;;2.85;92.89;101761.03;4981317;28;20059;-83
2022/02/11 05:19:07;;;;;;;23.98;11.55;;;;;;;2.86;93.41;101757.53;4983509;28;20489;-83
2022/02/11 05:21:34;;;;;;;22.58;11.45;;;;;;;2.94;92.84;101757.97;4979525;28;20047;-85
2022/02/11 05:24:10;;;;;;;22.75;11.43;;;;;;;2.87;93.67;101766.97;4982342;28;20137;-83
2022/02/11 05:26:42;;;;;;;34.35;11.88;;;;;;;2.92;92.61;101761.56;4982053;28;20580;-82
2022/02/11 05:29:10;;;;;;;26.33;11.80;;;;;;;2.96;93.36;101778.56;4979509;28;20572;-85
2022/02/11 05:31:37;;;;;;;23.23;10.63;;;;;;;2.86;93.01;101760.13;4984690;28;20592;-84
2022/02/11 05:34:07;;;;;;;24.98;11.43;;;;;;;2.90;93.14;101771.13;4989953;28;20046;-85
2022/02/11 05:36:34;;;;;;;19.02;9.70;;;;;;;2.84;93.53;101751.59;4992661;28;20059;-85
2022/02/11 05:39:10;;;;;;;17.98;10.45;;;;;;;2.87;93.83;101777.28;4992742;28;20082;-85
2022/02/11 05:41:37;;;;;;;32.88;11.73;;;;;;;2.71;93.84;101749.75;4989816;28;20640;-84
2022/02/11 05:44:12;;;;;;;20.10;10.40;;;;;;;2.80;93.50;101770.78;4985689;28;20042;-82
2022/02/11 05:49:28;;;;;;;23.55;10.48;;;;;;;3.23;92.43;101802.19;4980766;28;20047;-83
2022/02/11 05:51:55;;;;;;;27.50;10.88;;;;;;;3.16;92.05;101793.06;4981191;28;20055;-84
2022/02/11 05:54:21;;;;;;;22.35;10.80;;;;;;;3.31;92.07;101805.19;4982249;28;20050;-85
2022/02/11 05:57:05;;;;;;;25.15;11.27;;;;;;;3.36;91.76;101820.47;4981841;28;20096;-84
2022/02/11 05:59:36;;;;;;;22.27;10.73;;;;;;;3.27;92.36;101806.28;4982546;28;20054;-84
2022/02/11 06:02:03;;;;;;;23.48;10.40;;;;;;;3.40;92.52;101833.16;4983425;28;20050;-85
2022/02/11 06:04:30;;;;;;;19.05;10.30;;;;;;;3.38;92.39;101835.00;4981852;28;20066;-82
2022/02/11 06:07:01;;;;;;;23.67;10.55;;;;;;;3.25;92.19;101818.47;4983993;28;20053;-82
2022/02/11 06:09:28;;;;;;;28.98;11.13;;;;;;;3.13;92.77;101814.75;4982037;28;20054;-83
2022/02/11 06:11:55;;;;;;;30.55;11.00;;;;;;;3.14;92.92;101811.25;4982762;28;20065;-83
2022/02/11 06:14:31;;;;;;;21.83;11.13;;;;;;;3.12;93.30;101827.75;4982077;28;20051;-84
2022/02/11 06:16:59;;;;;;;28.77;11.88;;;;;;;3.29;92.60;101851.03;4979717;28;20057;-81
2022/02/11 06:19:26;;;;;;;24.05;11.30;;;;;;;3.30;92.43;101857.88;4977641;28;20110;-82
2022/02/11 06:22:00;;;;;;;25.55;10.77;;;;;;;3.39;92.43;101848.75;4978313;28;20074;-81
2022/02/11 06:24:27;;;;;;;25.38;11.32;;;;;;;3.41;92.67;101847.78;4977486;28;20066;-82
2022/02/11 06:26:56;;;;;;;26.63;11.40;;;;;;;3.31;92.95;101843.97;4978304;28;20128;-83
2022/02/11 06:29:23;;;;;;;21.90;9.98;;;;;;;3.38;92.94;101863.44;4978463;28;20066;-83
2022/02/11 06:31:50;;;;;;;23.42;11.43;;;;;;;3.42;92.35;101867.56;4979484;28;20059;-82
2022/02/11 06:34:19;;;;;;;18.30;10.73;;;;;;;3.46;92.36;101879.41;4981289;28;20051;-83
2022/02/11 06:36:49;;;;;;;24.42;10.50;;;;;;;3.53;91.07;101885.13;4978329;28;20191;-84
2022/02/11 06:39:17;;;;;;;23.02;10.18;;;;;;;3.48;91.92;101871.56;4977530;28;20114;-83
2022/02/11 06:41:55;;;;;;;26.52;10.40;;;;;;;3.45;91.70;101867.41;4976351;28;20101;-83
2022/02/11 06:44:23;;;;;;;19.48;10.98;;;;;;;3.48;91.66;101882.75;4975682;28;20429;-83
2022/02/11 06:47:02;;;;;;;21.55;9.55;;;;;;;3.46;92.71;101892.34;4975043;28;20153;-84
2022/02/11 06:49:35;;;;;;;23.50;10.35;;;;;;;3.47;92.10;101888.84;4975774;28;20456;-83
2022/02/11 06:52:04;;;;;;;25.33;9.10;;;;;;;3.68;91.45;101910.19;4977789;28;20101;-83
2022/02/11 06:54:50;;;;;;;23.70;9.07;;;;;;;3.62;91.70;101926.06;4986376;28;20063;-84
2022/02/11 06:57:18;;;;;;;23.10;9.40;;;;;;;3.60;91.77;101922.72;4984987;28;20046;-84
2022/02/11 06:59:47;;;;;;;22.27;8.75;;;;;;;3.64;92.60;101939.75;4986182;28;20412;-84
2022/02/11 07:20:21;;;;;;;21.55;6.88;;;;;;;3.86;91.36;101986.06;4981542;28;20105;-81
2022/02/11 07:22:48;;;;;;;20.77;6.97;;;;;;;3.85;91.57;101999.91;4985128;28;20051;-81
2022/02/11 07:25:15;;;;;;;18.60;6.97;;;;;;;3.81;90.94;102003.59;4984076;28;20468;-81
2022/02/11 07:27:42;;;;;;;24.58;7.18;;;;;;;3.86;90.56;101993.81;4985443;28;20093;-81
2022/02/11 07:30:09;;;;;;;17.25;6.60;;;;;;;3.95;89.85;102001.13;4982191;28;20061;-81
2022/02/11 07:35:55;;;;;;;18.73;6.22;;;;;;;3.94;89.88;102014.97;3353594;23;20114;-83
2022/02/11 07:42:18;;;;;;;;;;;;;;;;;;;;;
2022/02/11 08:01:47;;;;;;;;;;;;;;;;;;;;;
2022/02/11 08:11:28;;;;;;;20.88;6.95;;;;;;;4.44;89.09;102078.84;4985140;28;20065;-84
2022/02/11 08:14:38;;;;;;;17.75;6.93;;;;;;;4.17;89.24;102086.34;4871731;29;20113;-83
2022/02/11 08:17:07;;;;;;;16.30;6.07;;;;;;;3.96;89.77;102096.03;4919023;28;20059;-82
2022/02/11 08:19:44;;;;;;;19.55;6.35;;;;;;;3.92;89.63;102090.16;4983029;28;20051;-81
2022/02/11 08:22:11;;;;;;;18.17;6.20;;;;;;;4.18;89.07;102101.81;4986010;28;20093;-82
2022/02/11 08:24:39;;;;;;;18.73;6.45;;;;;;;4.45;88.17;102109.88;4985001;28;20055;-81
2022/02/11 08:27:06;;;;;;;18.23;6.60;;;;;;;4.49;88.17;102115.75;4985658;28;20085;-82
2022/02/11 08:29:35;;;;;;;19.50;6.13;;;;;;;4.68;86.25;102113.88;4984593;28;20088;-82
2022/02/11 08:32:02;;;;;;;15.35;5.93;;;;;;;4.87;85.72;102119.72;4985564;28;20114;-82
2022/02/11 08:34:28;;;;;;;16.25;5.90;;;;;;;5.11;85.66;102117.56;4985053;28;20051;-83
2022/02/11 08:36:56;;;;;;;17.55;6.20;;;;;;;4.93;85.00;102118.53;4985909;28;20058;-82
2022/02/11 08:39:23;;;;;;;16.88;6.22;;;;;;;4.93;85.76;102132.34;4987144;28;20063;-85
2022/02/11 08:41:54;;;;;;;18.23;6.32;;;;;;;5.06;85.68;102149.84;4986286;28;20073;-82
2022/02/11 08:44:25;;;;;;;13.02;5.40;;;;;;;4.98;85.32;102153.69;4987866;28;20050;-80
2022/02/11 08:47:01;;;;;;;12.77;5.55;;;;;;;5.07;85.17;102156.72;4987102;28;20278;-81
2022/02/11 08:49:28;;;;;;;23.20;6.70;;;;;;;5.02;85.25;102167.34;4985680;28;20118;-81
2022/02/11 08:52:09;;;;;;;17.35;6.15;;;;;;;5.15;85.85;102183.94;4986184;28;20062;-83
2022/02/11 08:54:44;;;;;;;17.10;5.30;;;;;;;5.12;86.23;102193.63;4985725;28;20054;-79
2022/02/11 08:57:18;;;;;;;24.42;6.18;;;;;;;5.22;85.67;102194.78;4985895;28;20051;-84
2022/02/11 08:59:57;;;;;;;23.42;6.50;;;;;;;5.25;84.99;102200.66;4985360;28;20051;-83
2022/02/11 09:02:48;;;;;;;20.15;5.88;;;;;;;4.95;86.02;102190.19;4987423;28;20119;-83
2022/02/11 09:08:24;;;;;;;23.65;6.45;;;;;;;4.80;86.66;102198.75;4952164;28;20070;-81
2022/02/11 09:10:54;;;;;;;20.25;4.97;;;;;;;4.76;85.94;102206.78;4965144;29;20057;-82
2022/02/11 09:13:27;;;;;;;19.10;5.18;;;;;;;4.69;85.44;102219.25;4965801;28;20474;-80
2022/02/11 09:16:02;;;;;;;18.30;4.82;;;;;;;4.82;84.60;102230.63;4964623;28;20051;-84
2022/02/11 09:18:36;;;;;;;18.77;4.97;;;;;;;4.79;84.38;102246.34;4984563;28;20114;-82
2022/02/11 09:23:44;;;;;;;20.27;5.32;;;;;;;4.60;84.53;102232.69;4984119;28;20194;-82
2022/02/11 09:26:14;;;;;;;20.67;5.55;;;;;;;4.73;84.78;102244.06;4984755;28;20073;-83
2022/02/11 09:28:51;;;;;;;25.55;6.18;;;;;;;4.90;84.58;102248.41;4988576;28;20047;-82
2022/02/11 09:31:32;;;;;;;12.98;4.65;;;;;;;4.94;83.12;102250.75;4988156;28;20082;-85
2022/02/11 09:34:04;;;;;;;17.60;6.45;;;;;;;5.22;81.84;102236.31;4988439;28;20212;-82
2022/02/11 09:36:44;;;;;;;17.52;4.97;;;;;;;5.45;81.07;102248.06;4989891;28;20066;-82
2022/02/11 09:39:18;;;;;;;19.42;6.00;;;;;;;5.66;79.91;102263.31;4989454;28;20049;-81
2022/02/11 09:41:59;;;;;;;21.65;5.13;;;;;;;5.63;80.31;102268.69;4990595;28;20049;-82
2022/02/11 09:44:40;;;;;;;21.27;4.97;;;;;;;5.71;79.57;102280.38;4987951;28;20061;-83
2022/02/11 09:53:20;;;;;;;20.45;4.47;;;;;;;5.67;78.51;102284.94;4968915;28;20059;-80
2022/02/11 09:56:10;;;;;;;19.30;4.60;;;;;;;5.70;78.82;102276.09;4983359;28;20066;-78
2022/02/11 09:58:49;;;;;;;18.50;5.07;;;;;;;5.71;77.54;102275.19;4956077;28;20115;-82
2022/02/11 10:01:23;;;;;;;17.42;4.63;;;;;;;5.67;77.24;102282.34;4987430;28;20051;-81
2022/02/11 10:04:40;;;;;;;17.45;4.47;;;;;;;6.01;76.46;102303.88;4986641;28;20133;-80
2022/02/11 10:07:37;;;;;;;19.98;4.72;;;;;;;6.04;76.23;102303.69;4979541;28;20055;-81
2022/02/11 10:21:52;;;;;;;;;;;;;;;;;;;;;
2022/02/11 10:35:43;;;;;;;;;;;;;;;;;;;;;
2022/02/11 10:46:09;;;;;;;;;;;;;;;;;;;;;
2022/02/11 11:10:09;;;;;;;15.25;4.20;;;;;;;6.62;71.08;102400.84;4859743;29;20064;-82
2022/02/11 11:13:22;;;;;;;20.95;5.45;;;;;;;6.56;70.29;102406.44;4940633;29;20052;-79
2022/02/11 11:40:33;;;;;;;22.75;5.82;;;;;;;6.49;66.51;102399.06;4767944;29;20156;-81
2022/02/11 11:47:34;;;;;;;14.70;4.32;;;;;;;6.43;65.66;102415.00;4802815;29;20422;-80
2022/02/11 11:54:21;;;;;;;12.50;4.45;;;;;;;6.32;65.45;102429.44;4866326;29;20193;-81
2022/02/11 11:57:35;;;;;;;14.55;3.85;;;;;;;6.41;64.19;102409.88;4887633;29;20080;-81
2022/02/11 12:00:04;;;;;;;15.00;3.60;;;;;;;6.42;64.20;102405.53;4933619;28;20150;-84
2022/02/11 12:02:38;;;;;;;16.48;4.30;;;;;;;6.38;65.50;102420.44;4990680;28;20050;-80
2022/02/11 12:05:08;;;;;;;21.67;4.30;;;;;;;6.15;65.98;102416.50;4990411;28;20074;-81
2022/02/11 12:07:41;;;;;;;18.63;4.75;;;;;;;5.91;66.58;102410.91;4989633;28;20070;-81
2022/02/11 12:10:12;;;;;;;17.05;4.53;;;;;;;5.93;66.44;102423.81;4988573;28;20043;-79
2022/02/11 12:34:48;;;;;;;16.17;4.72;;;;;;;6.39;63.47;102457.69;4821485;29;20076;-81
2022/02/11 12:55:36;;;;;;;;;;;;;;;;;;;;;
2022/02/11 13:08:36;;;;;;;12.52;3.65;;;;;;;7.12;54.57;102466.53;4754974;30;20116;-79
2022/02/11 13:11:06;;;;;;;12.60;3.38;;;;;;;7.43;53.32;102478.59;4826703;29;20140;-81
2022/02/11 13:13:44;;;;;;;13.10;3.72;;;;;;;7.44;52.51;102475.91;4884310;29;20059;-79
2022/02/11 13:19:43;;;;;;;15.57;3.70;;;;;;;7.50;53.21;102467.75;4963125;29;20059;-78
2022/02/11 13:22:15;;;;;;;9.30;3.28;;;;;;;7.61;53.61;102470.53;4960081;28;20134;-79
2022/02/11 13:24:52;;;;;;;15.93;4.07;;;;;;;7.70;53.65;102483.94;4957472;28;20044;-80
2022/02/11 13:27:26;;;;;;;11.82;3.47;;;;;;;7.62;54.08;102466.16;4947855;28;20309;-80
2022/02/11 13:30:05;;;;;;;14.25;4.47;;;;;;;7.52;52.34;102484.13;4959177;28;20067;-80
2022/02/11 13:32:38;;;;;;;10.55;3.88;;;;;;;7.36;52.47;102475.53;4959619;28;20051;-80
2022/02/11 13:35:13;;;;;;;18.83;3.55;;;;;;;7.22;52.38;102491.09;4962437;28;20581;-80
2022/02/11 13:37:46;;;;;;;11.88;3.83;;;;;;;6.86;51.48;102484.50;4962147;28;20198;-80
2022/02/11 13:43:58;;;;;;;17.77;3.78;;;;;;;6.28;52.75;102487.72;4957166;28;20058;-79
2022/02/11 13:47:01;;;;;;;15.77;4.15;;;;;;;6.16;54.90;102488.38;4960013;29;20111;-80
2022/02/11 13:49:52;;;;;;;16.83;4.32;;;;;;;6.28;55.30;102513.72;4955026;28;20150;-81
2022/02/11 13:55:16;;;;;;;14.52;4.20;;;;;;;5.88;58.03;102501.13;4962304;29;20218;-83
2022/02/11 13:58:20;;;;;;;13.07;4.65;;;;;;;5.93;58.56;102509.56;4961236;28;20071;-82
2022/02/11 14:01:33;;;;;;;14.35;4.05;;;;;;;5.67;58.01;102497.91;4960402;28;20559;-80
2022/02/11 14:20:15;;;;;;;8.57;3.10;;;;;;;5.98;51.49;102524.00;4875180;29;20049;-85
2022/02/11 14:27:18;;;;;;;14.75;4.25;;;;;;;6.01;49.99;102554.16;4794470;30;20154;-86
2022/02/11 14:30:32;;;;;;;;;;;;;;;;;;;;;
2022/02/11 14:50:56;;;;;;;14.55;4.40;;;;;;;6.63;49.04;102562.97;4874956;28;20062;-84
2022/02/11 14:53:22;;;;;;;8.38;3.72;;;;;;;6.66;49.04;102563.63;4998144;23;20073;-84
2022/02/11 14:55:49;;;;;;;11.27;3.50;;;;;;;6.71;50.33;102557.34;4974820;28;20145;-81
2022/02/11 14:58:16;;;;;;;8.90;3.15;;;;;;;6.81;49.84;102566.34;4978015;28;20047;-83
2022/02/11 15:00:43;;;;;;;11.95;3.28;;;;;;;6.67;49.82;102554.06;4980632;28;20050;-83
2022/02/11 15:03:11;;;;;;;10.20;3.58;;;;;;;6.74;50.98;102571.03;4964589;28;20083;-81
2022/02/11 15:05:37;;;;;;;8.32;3.55;;;;;;;6.75;49.70;102577.91;4980257;28;20239;-81
2022/02/11 15:08:05;;;;;;;12.73;3.42;;;;;;;6.64;50.71;102581.09;4978198;28;20082;-81
2022/02/11 15:10:31;;;;;;;7.18;3.03;;;;;;;6.66;51.69;102578.41;4977420;28;20290;-81
2022/02/11 15:12:58;;;;;;;12.25;3.47;;;;;;;6.62;52.83;102572.53;4978901;28;20050;-81
2022/02/11 15:15:29;;;;;;;9.63;3.72;;;;;;;6.61;52.19;102572.66;4978837;28;20081;-81
2022/02/11 15:17:56;;;;;;;12.35;3.03;;;;;;;6.58;51.80;102591.03;4975973;28;20046;-80
2022/02/11 15:20:24;;;;;;;11.82;3.33;;;;;;;6.48;51.93;102587.22;4976785;28;20083;-81
2022/02/11 15:23:01;;;;;;;9.82;3.63;;;;;;;6.44;52.63;102596.09;4978538;28;20157;-81
2022/02/11 15:25:38;;;;;;;10.00;3.22;;;;;;;6.39;53.54;102613.72;4983972;28;20083;-82
2022/02/11 15:28:14;;;;;;;11.32;3.17;;;;;;;6.32;54.80;102606.22;4981314;28;20073;-81
2022/02/11 15:30:42;;;;;;;10.68;3.70;;;;;;;6.18;51.68;102613.06;4983379;28;20051;-82
2022/02/11 15:33:13;;;;;;;15.60;3.97;;;;;;;6.03;51.20;102609.50;4985047;28;20130;-81
2022/02/11 15:36:08;;;;;;;12.63;4.40;;;;;;;5.82;52.40;102613.16;4985043;28;20062;-83
2022/02/11 15:44:27;;;;;;;10.80;3.97;;;;;;;5.50;52.98;102612.16;4982899;28;20058;-82
2022/02/11 15:46:56;;;;;;;11.18;3.65;;;;;;;5.43;53.86;102622.00;4983256;28;20078;-81
2022/02/11 15:49:27;;;;;;;7.90;3.10;;;;;;;5.38;53.39;102610.16;4983325;28;20043;-81
2022/02/11 15:52:20;;;;;;;6.78;2.67;;;;;;;5.33;53.95;102615.56;4987799;28;20083;-81
2022/02/11 15:54:59;;;;;;;8.73;3.10;;;;;;;5.28;55.58;102623.56;4984669;28;20053;-81
2022/02/11 16:03:39;;;;;;;12.07;3.65;;;;;;;5.07;57.27;102634.97;4963650;28;20054;-80
2022/02/11 16:06:35;;;;;;;11.45;3.05;;;;;;;4.94;58.34;102626.91;4975636;28;20110;-79
2022/02/11 16:09:52;;;;;;;;;;;;;;;;;;;;;
2022/02/11 16:12:32;;;;;;;11.63;3.65;;;;;;;4.92;60.35;102641.72;4985291;28;20450;-81
2022/02/11 16:27:05;;;;;;;14.27;4.63;;;;;;;4.84;59.53;102664.56;5100995;23;20054;-88
2022/02/11 16:29:33;;;;;;;12.75;4.00;;;;;;;4.77;59.94;102667.50;4980162;28;20077;-88
2022/02/11 16:32:01;;;;;;;11.65;3.95;;;;;;;4.75;59.53;102670.16;4982558;28;20421;-89
2022/02/11 16:34:30;;;;;;;10.02;4.20;;;;;;;4.78;59.98;102662.25;4981252;28;20089;-89
2022/02/11 16:36:57;;;;;;;21.60;4.65;;;;;;;4.68;60.22;102666.19;4984206;28;20083;-89
2022/02/11 16:39:24;;;;;;;11.80;3.50;;;;;;;4.69;60.63;102672.22;4983342;28;20156;-87
2022/02/11 16:41:52;;;;;;;7.30;3.58;;;;;;;4.70;59.86;102674.75;4966007;28;20083;-87
2022/02/11 16:44:22;;;;;;;13.00;3.58;;;;;;;4.75;61.10;102671.91;4964258;28;20062;-90
2022/02/11 16:46:50;;;;;;;10.85;3.08;;;;;;;4.71;59.64;102681.59;4964551;28;20512;-89
2022/02/11 16:49:18;;;;;;;16.08;4.03;;;;;;;4.78;60.53;102682.16;4963481;28;20047;-87
2022/02/11 16:51:45;;;;;;;10.73;3.70;;;;;;;4.75;61.22;102690.06;4954191;28;20527;-87
2022/02/11 16:54:13;;;;;;;10.15;3.30;;;;;;;4.76;59.45;102687.41;4943558;29;20554;-89
2022/02/11 16:56:40;;;;;;;13.25;3.78;;;;;;;4.66;59.49;102701.72;4945819;29;20047;-87
2022/02/11 16:59:06;;;;;;;13.23;4.50;;;;;;;4.59;60.19;102697.69;4944663;29;20499;-89
2022/02/11 17:01:34;;;;;;;10.15;4.93;;;;;;;4.55;60.75;102696.16;4956917;28;20355;-92
2022/02/11 17:04:02;;;;;;;16.13;4.00;;;;;;;4.49;60.18;102699.00;4966799;28;20059;-89
2022/02/11 17:06:29;;;;;;;15.85;4.78;;;;;;;4.46;61.26;102707.75;4972531;28;20050;-90
2022/02/11 17:08:57;;;;;;;14.88;5.00;;;;;;;4.32;61.48;102699.72;4977381;28;20031;-88
2022/02/11 17:11:24;;;;;;;16.13;4.35;;;;;;;4.15;62.89;102697.84;4978310;28;20031;-88
2022/02/11 17:13:51;;;;;;;18.58;4.28;;;;;;;4.14;62.34;102706.53;4992332;28;20047;-90
2022/02/11 17:16:18;;;;;;;10.95;4.70;;;;;;;4.13;62.46;102711.78;4979271;28;20043;-90
2022/02/11 17:18:46;;;;;;;16.02;7.07;;;;;;;3.94;63.94;102714.28;4977953;28;20050;-90
2022/02/11 17:21:13;;;;;;;14.32;6.45;;;;;;;3.92;64.35;102711.75;4977833;28;20031;-88
2022/02/11 17:23:40;;;;;;;12.85;5.40;;;;;;;3.82;64.57;102727.72;4977336;28;20035;-90
2022/02/11 17:26:06;;;;;;;16.63;6.18;;;;;;;3.80;65.32;102726.94;4963438;28;20047;-89
2022/02/11 17:28:33;;;;;;;10.93;4.75;;;;;;;3.66;66.09;102724.91;4957017;29;20138;-87
2022/02/11 17:31:00;;;;;;;12.75;4.50;;;;;;;3.57;66.50;102727.84;4953800;29;20048;-87
2022/02/11 17:33:27;;;;;;;11.10;4.05;;;;;;;3.49;66.57;102722.13;4961674;29;20053;-88
2022/02/11 17:36:00;;;;;;;9.63;3.85;;;;;;;3.53;66.55;102734.91;4950003;29;20099;-87
2022/02/11 17:38:27;;;;;;;14.57;4.65;;;;;;;3.37;67.00;102727.75;4942448;28;20134;-87
2022/02/11 17:40:54;;;;;;;14.27;4.57;;;;;;;3.39;66.81;102721.63;4941291;29;20083;-88
2022/02/11 17:43:21;;;;;;;9.90;4.10;;;;;;;3.37;66.48;102731.19;4940936;29;20456;-89
2022/02/11 17:45:47;;;;;;;13.93;4.40;;;;;;;3.33;67.59;102738.22;4941212;29;20099;-88
2022/02/11 17:48:14;;;;;;;11.82;4.60;;;;;;;3.35;67.62;102748.53;4941495;28;20059;-87
2022/02/11 17:50:41;;;;;;;16.98;4.13;;;;;;;3.34;67.04;102741.66;4940553;29;20087;-88
2022/02/11 17:53:09;;;;;;;12.63;4.50;;;;;;;3.34;67.19;102733.91;4941229;29;20052;-88
2022/02/11 17:55:36;;;;;;;18.95;6.07;;;;;;;3.34;67.10;102736.50;4947091;29;20047;-87
2022/02/11 17:58:02;;;;;;;16.65;5.00;;;;;;;3.44;66.79;102745.59;4960726;28;20055;-89
2022/02/11 18:00:29;;;;;;;15.35;4.50;;;;;;;3.43;66.00;102748.25;4960384;28;20059;-88
2022/02/11 18:02:56;;;;;;;9.23;4.80;;;;;;;3.42;66.85;102744.81;4958351;28;20051;-89
2022/02/11 18:05:23;;;;;;;13.45;5.18;;;;;;;3.53;65.31;102734.91;4960219;28;20051;-89
2022/02/11 18:07:50;;;;;;;8.73;4.53;;;;;;;3.43;65.33;102736.16;4961458;29;20066;-88
2022/02/11 18:10:19;;;;;;;15.55;4.68;;;;;;;3.40;65.02;102738.84;4959332;29;20119;-89
2022/02/11 18:12:46;;;;;;;11.68;4.97;;;;;;;3.41;65.42;102742.28;4958040;28;20110;-89
2022/02/11 18:15:14;;;;;;;9.55;4.22;;;;;;;3.40;66.00;102745.78;4957242;28;20055;-89
2022/02/11 18:17:41;;;;;;;11.02;3.90;;;;;;;3.22;67.10;102745.59;4958111;28;20047;-89
2022/02/11 18:20:10;;;;;;;12.45;4.50;;;;;;;3.21;67.04;102743.91;4958224;28;20085;-87
2022/02/11 18:22:38;;;;;;;18.10;4.85;;;;;;;3.12;68.29;102743.38;4958129;28;20142;-88
2022/02/11 18:25:05;;;;;;;10.20;4.45;;;;;;;3.04;68.53;102751.41;4957960;28;20095;-88
2022/02/11 18:27:34;;;;;;;11.00;4.00;;;;;;;3.00;68.02;102748.09;4957847;28;20047;-87
2022/02/11 18:30:08;;;;;;;12.48;4.60;;;;;;;2.87;68.39;102757.19;4953895;29;20106;-88
2022/02/11 18:32:36;;;;;;;17.40;5.03;;;;;;;2.84;69.03;102753.88;4968531;28;20066;-88
2022/02/11 18:35:03;;;;;;;15.93;5.22;;;;;;;2.82;67.70;102755.69;4975689;28;20494;-89
2022/02/11 18:37:30;;;;;;;15.18;5.40;;;;;;;2.76;67.65;102756.75;4959675;28;20073;-90
2022/02/11 18:39:56;;;;;;;10.90;4.90;;;;;;;2.68;67.68;102743.25;4939988;29;20044;-89
2022/02/11 18:42:23;;;;;;;11.10;5.53;;;;;;;2.72;68.10;102765.50;4954448;28;20342;-89
2022/02/11 18:44:51;;;;;;;8.88;5.20;;;;;;;2.62;68.92;102748.63;4967585;28;20040;-91
2022/02/11 18:47:19;;;;;;;13.18;5.50;;;;;;;2.56;69.34;102754.00;4960714;28;20110;-90
2022/02/11 18:49:46;;;;;;;21.02;7.80;;;;;;;2.65;69.13;102764.88;4962187;29;20110;-91
2022/02/11 18:52:13;;;;;;;16.98;7.68;;;;;;;2.62;68.03;102743.44;4961535;29;20213;-89
2022/02/11 18:54:42;;;;;;;32.72;14.80;;;;;;;2.59;68.76;102736.66;4962297;29;20122;-91
2022/02/11 18:57:08;;;;;;;14.63;7.60;;;;;;;2.71;66.84;102758.66;4957240;28;20510;-90
2022/02/11 19:02:22;;;;;;;15.45;7.43;;;;;;;2.51;67.79;102745.56;4951324;28;20101;-89
2022/02/11 19:04:51;;;;;;;12.30;7.28;;;;;;;2.43;68.61;102747.56;4968483;28;20051;-88
2022/02/11 19:07:19;;;;;;;16.83;6.75;;;;;;;2.43;69.17;102763.06;4942748;29;20480;-91
2022/02/11 19:09:45;;;;;;;19.77;7.03;;;;;;;2.26;70.58;102755.91;4946593;29;20051;-88
2022/02/11 19:12:12;;;;;;;17.13;6.40;;;;;;;2.31;73.21;102770.34;4959552;28;20047;-88
2022/02/11 19:14:39;;;;;;;19.42;5.80;;;;;;;2.54;78.58;102768.72;4949421;28;20051;-89
2022/02/11 19:17:07;;;;;;;16.83;5.78;;;;;;;2.28;74.25;102764.44;4961187;29;20466;-88
2022/02/11 19:19:35;;;;;;;16.75;5.57;;;;;;;2.11;74.95;102772.72;4960474;29;20052;-89
2022/02/11 19:22:02;;;;;;;20.08;5.70;;;;;;;1.96;75.11;102779.22;4958538;29;20040;-91
2022/02/11 19:24:29;;;;;;;14.95;5.38;;;;;;;1.90;74.81;102791.47;4942199;28;20475;-89
2022/02/11 19:26:56;;;;;;;22.65;6.35;;;;;;;1.69;74.79;102768.91;4943461;29;20051;-89
2022/02/11 19:29:22;;;;;;;13.38;5.05;;;;;;;1.77;75.29;102791.03;4942509;28;20131;-88
2022/02/11 19:31:49;;;;;;;14.57;4.57;;;;;;;1.64;75.59;102769.91;4944080;29;20094;-87
2022/02/11 19:34:17;;;;;;;16.20;4.95;;;;;;;1.66;76.13;102785.34;4945084;28;20047;-89
2022/02/11 19:36:45;;;;;;;14.25;4.00;;;;;;;1.50;75.61;102766.88;4944405;29;20051;-88
2022/02/11 19:39:13;;;;;;;11.50;4.15;;;;;;;1.47;75.50;102774.72;4944534;28;20071;-88
2022/02/11 19:41:40;;;;;;;15.48;5.00;;;;;;;1.44;75.46;102781.69;4944898;28;20170;-88
2022/02/11 19:44:07;;;;;;;13.00;4.68;;;;;;;1.41;75.39;102780.06;4944207;29;20048;-88
2022/02/11 19:46:34;;;;;;;18.23;5.00;;;;;;;1.33;76.24;102789.75;4949017;28;20122;-91
2022/02/11 19:49:01;;;;;;;14.20;5.50;;;;;;;1.30;73.82;102770.06;4962070;28;20514;-89
2022/02/11 19:51:28;;;;;;;8.23;4.03;;;;;;;1.44;73.41;102805.75;4960657;29;20096;-89
2022/02/11 19:53:56;;;;;;;18.30;4.50;;;;;;;1.44;72.98;102800.59;4962275;29;20087;-89
2022/02/11 19:56:23;;;;;;;23.35;11.13;;;;;;;1.46;72.55;102793.66;4961619;28;20454;-90
2022/02/11 19:58:50;;;;;;;17.67;9.57;;;;;;;1.37;72.77;102788.78;4962023;28;20123;-87
2022/02/11 20:01:17;;;;;;;18.65;8.48;;;;;;;1.41;73.85;102803.28;4957769;29;20096;-89
2022/02/11 20:03:47;;;;;;;14.82;8.00;;;;;;;1.47;74.43;102807.41;4941651;29;20048;-89
2022/02/11 20:06:17;;;;;;;18.83;8.95;;;;;;;1.42;74.47;102807.53;4947834;29;20149;-88